Sibley, IA

11:33 PM CST on January 28, 2015 (GMT -0600)
IADOT Sibley (HW 60/HW 9) | Change Station
CLOSE
Current Station
Personal Weather Station
Location: Sibley, IA
Elevation: 1574 ft
Nearby Weather Stations
Active Advisory: Wind Advisory Active Notice: Public Information Statement

Elev 1574 ft 43.43 °N, 95.71 °W | Updated 29 minutes ago

Overcast
Overcast
33 °F
Feels Like 20 °F
N
27
Wind Variable Wind from NNW
Gusts 40.0 mph

Today
High -- | Low -- °F
--% Chance of Precip.
Yesterday
High -- | Low -- °F
Precip. -- in
7:43 AM 5:29 PM
Waxing Gibbous, 71% visible
Pressure 29.91 in
Visibility 5.0 miles
Clouds Overcast 700 ft
Windchill 20 °F
Dew Point 33 °F
Humidity 99%
Rainfall -999.00 in
Snow Depth Not available.
UV 0 out of 12
Pollen .90 out of 12
Air Quality Not available.
Flu Activity Not available.
METAR KSHL 290515Z AUTO 33025G30KT 5SM -UP OVC007 02/02 A2991 RMK AO2

More Conditions Fewer Conditions

Pressure 29.91 in
Visibility 5.0 miles
Clouds Overcast 700 ft
Windchill 20 °F
Dew Point 33 °F
Humidity 99%
Rainfall -999.00 in
Snow Depth Not available.
UV 0 out of 12
Pollen .90 out of 12
Air Quality Not available.
Flu Activity Not available.
METAR KSHL 290515Z AUTO 33025G30KT 5SM -UP OVC007 02/02 A2991 RMK AO2

More Conditions Fewer Conditions

10-Day Weather Forecast

Almanac

Astronomy

Jan. 28, 2015 Rise Set
Actual Time
Civil Twilight
Nautical Twilight
Astronomical Twilight
Moon
Length of Visible Light
Length of Day
Tomorrow will be .
, % of the Moon is Illuminated

Today's Extremes

State Highs State Lows

Community

WunderPhotos

Upload Photos

1,791,359 photos uploaded!

WunderBlogs® & News

Nearby

Air Quality

  Air Quality AQ Index Pollutant
Not available.

Snow Depth

Station Depth Elevation

Earthquake Activity

City Distance Mag. Time & Date
Minimum magnitude displayed is 2.5.

Coastal Water Temperatures

Place Temperature

Nearby Weather Stations